Time;durP1;ratioP1;P1;durP2;ratioP2;P2;SDS_P1;SDS_P2;PMS_P1;PMS_P2;Temp;Humidity;BMP_temperature;BMP_pressure;BME280_temperature;BME280_humidity;BME280_pressure;Samples;Min_cycle;Max_cycle;Signal;HPM_P1;HPM_P2
2023/01/07 00:01:14;;;;;;;4.85;3.47;;;;;16.90;101365.00;;;;5055913;28;20217;-77
2023/01/07 00:03:42;;;;;;;6.53;4.05;;;;;16.90;101359.00;;;;5068354;28;20207;-78
2023/01/07 00:06:13;;;;;;;4.60;3.65;;;;;16.90;101350.00;;;;5068737;28;20233;-77
2023/01/07 00:08:42;;;;;;;4.75;3.97;;;;;16.90;101342.00;;;;5067928;28;20218;-77
2023/01/07 00:11:12;;;;;;;5.07;3.13;;;;;16.90;101343.00;;;;5068604;28;20195;-77
2023/01/07 00:13:40;;;;;;;3.83;3.35;;;;;16.90;101340.00;;;;5066602;28;20209;-77
2023/01/07 00:16:10;;;;;;;3.88;3.30;;;;;16.90;101339.00;;;;5068147;28;20195;-77
2023/01/07 00:18:39;;;;;;;3.42;3.13;;;;;16.80;101343.00;;;;5066548;28;20553;-77
2023/01/07 00:21:08;;;;;;;3.50;3.00;;;;;16.80;101347.00;;;;5055413;28;20199;-77
2023/01/07 00:23:37;;;;;;;3.97;3.58;;;;;16.90;101333.00;;;;5062464;28;20554;-78
2023/01/07 00:26:07;;;;;;;3.88;3.22;;;;;16.80;101338.00;;;;5053485;28;20202;-77
2023/01/07 00:28:36;;;;;;;3.92;3.45;;;;;16.80;101340.00;;;;5054356;28;20667;-77
2023/01/07 00:31:05;;;;;;;3.70;3.40;;;;;16.80;101332.00;;;;5066430;28;20227;-77
2023/01/07 00:33:34;;;;;;;3.90;3.50;;;;;16.80;101334.00;;;;5067351;28;20202;-78
2023/01/07 00:36:04;;;;;;;3.88;3.47;;;;;16.80;101328.00;;;;5067582;28;20568;-77
2023/01/07 00:38:31;;;;;;;3.92;3.30;;;;;16.80;101323.00;;;;5067584;28;20203;-77
2023/01/07 00:40:58;;;;;;;4.53;3.42;;;;;16.80;101326.00;;;;5066273;28;20202;-77
2023/01/07 00:43:26;;;;;;;6.03;3.05;;;;;16.80;101326.00;;;;5065318;28;20575;-77
2023/01/07 00:45:53;;;;;;;3.35;3.05;;;;;16.80;101324.00;;;;5067872;28;20227;-77
2023/01/07 00:48:22;;;;;;;4.55;2.97;;;;;16.80;101320.00;;;;5065589;28;20215;-77
2023/01/07 00:50:51;;;;;;;3.67;3.03;;;;;16.80;101317.00;;;;5067556;28;20211;-77
2023/01/07 00:53:19;;;;;;;3.00;2.70;;;;;16.80;101313.00;;;;5070126;28;20222;-77
2023/01/07 00:55:49;;;;;;;4.43;3.25;;;;;16.70;101315.00;;;;5072161;28;20206;-77
2023/01/07 00:58:19;;;;;;;3.33;3.03;;;;;16.70;101309.00;;;;5071812;28;20210;-77
2023/01/07 01:00:47;;;;;;;3.58;2.90;;;;;16.70;101310.00;;;;5070876;28;20202;-77
2023/01/07 01:03:14;;;;;;;3.10;2.72;;;;;16.70;101298.00;;;;5071809;28;20203;-77
2023/01/07 01:05:42;;;;;;;4.50;3.40;;;;;16.70;101309.00;;;;5060680;28;20207;-77
2023/01/07 01:08:10;;;;;;;3.45;2.67;;;;;16.70;101302.00;;;;5052053;28;20203;-77
2023/01/07 01:10:38;;;;;;;4.53;3.30;;;;;16.60;101301.00;;;;5050513;28;20605;-77
2023/01/07 01:13:06;;;;;;;4.30;3.15;;;;;16.60;101305.00;;;;5051386;28;20204;-77
2023/01/07 01:15:33;;;;;;;6.07;2.95;;;;;16.60;101301.00;;;;5060068;28;20213;-77
2023/01/07 01:18:00;;;;;;;4.90;3.13;;;;;16.60;101301.00;;;;5071681;28;20195;-77
2023/01/07 01:20:27;;;;;;;4.20;3.45;;;;;16.60;101294.00;;;;5070857;28;20199;-77
2023/01/07 01:22:55;;;;;;;5.93;3.17;;;;;16.60;101287.00;;;;5058968;28;20207;-77
2023/01/07 01:25:22;;;;;;;4.35;3.08;;;;;16.60;101282.00;;;;5051258;28;20195;-77
2023/01/07 01:27:50;;;;;;;4.28;3.22;;;;;16.60;101286.00;;;;5063712;28;20203;-77
2023/01/07 01:30:18;;;;;;;4.47;3.97;;;;;16.60;101283.00;;;;5070733;28;20227;-77
2023/01/07 01:32:45;;;;;;;5.10;3.78;;;;;16.60;101279.00;;;;5067568;28;20195;-77
2023/01/07 01:35:12;;;;;;;5.38;3.10;;;;;16.60;101280.00;;;;5071216;28;20214;-77
2023/01/07 01:37:39;;;;;;;5.10;3.50;;;;;16.60;101283.00;;;;5071783;28;20199;-77
2023/01/07 01:40:08;;;;;;;3.97;3.15;;;;;16.50;101281.00;;;;5065668;28;20199;-77
2023/01/07 01:42:36;;;;;;;5.20;3.53;;;;;16.50;101284.00;;;;5071685;28;20579;-77
2023/01/07 01:45:05;;;;;;;4.75;3.60;;;;;16.50;101289.00;;;;5071163;28;20242;-77
2023/01/07 01:47:37;;;;;;;7.15;3.70;;;;;16.50;101285.00;;;;5071240;28;20205;-77
2023/01/07 01:50:13;;;;;;;5.65;3.33;;;;;16.50;101283.00;;;;5071134;28;20218;-77
2023/01/07 01:52:46;;;;;;;6.32;3.60;;;;;16.50;101280.00;;;;5070708;28;20209;-78
2023/01/07 01:55:16;;;;;;;4.82;3.88;;;;;16.50;101284.00;;;;5069881;28;20210;-77
2023/01/07 01:57:45;;;;;;;7.28;3.95;;;;;16.50;101277.00;;;;5061022;28;20191;-77
2023/01/07 02:00:16;;;;;;;5.13;3.78;;;;;16.50;101281.00;;;;5071055;28;20206;-78
2023/01/07 02:02:48;;;;;;;4.20;3.58;;;;;16.50;101269.00;;;;5071315;28;20225;-77
2023/01/07 02:05:16;;;;;;;4.40;3.38;;;;;16.50;101272.00;;;;5069504;28;20212;-77
2023/01/07 02:07:43;;;;;;;5.85;3.33;;;;;16.50;101271.00;;;;5071383;28;20207;-77
2023/01/07 02:10:14;;;;;;;5.72;3.67;;;;;16.50;101273.00;;;;5071320;28;20226;-77
2023/01/07 02:12:57;;;;;;;5.30;3.17;;;;;16.50;101280.00;;;;5068363;28;20199;-77
2023/01/07 02:15:34;;;;;;;5.40;3.55;;;;;16.50;101269.00;;;;5049702;28;20265;-77
2023/01/07 02:18:20;;;;;;;5.43;3.75;;;;;16.50;101267.00;;;;5065580;28;20222;-77
2023/01/07 02:21:00;;;;;;;5.15;3.40;;;;;16.50;101271.00;;;;5070292;28;20767;-77
2023/01/07 02:24:05;;;;;;;6.97;3.20;;;;;16.50;101273.00;;;;5070465;28;20202;-77
2023/01/07 02:26:59;;;;;;;4.65;3.50;;;;;16.50;101274.00;;;;5054370;28;20199;-77
2023/01/07 02:30:11;;;;;;;6.22;3.42;;;;;16.40;101280.00;;;;5035677;28;20230;-77
2023/01/07 02:33:09;;;;;;;6.93;3.17;;;;;16.40;101272.00;;;;5050336;28;20223;-77
2023/01/07 02:35:56;;;;;;;4.90;3.20;;;;;16.50;101273.00;;;;5050323;28;20570;-77
2023/01/07 02:38:34;;;;;;;4.18;3.35;;;;;16.50;101266.00;;;;5056936;28;20205;-77
2023/01/07 02:41:09;;;;;;;4.53;3.50;;;;;16.50;101267.00;;;;5070597;28;20206;-77
2023/01/07 02:43:45;;;;;;;3.88;2.92;;;;;16.50;101267.00;;;;5070590;28;20205;-77
2023/01/07 02:46:20;;;;;;;4.45;3.13;;;;;16.40;101264.00;;;;5070600;28;20237;-77
2023/01/07 02:48:51;;;;;;;4.45;3.58;;;;;16.40;101263.00;;;;5050801;28;20215;-77
2023/01/07 02:51:18;;;;;;;4.63;3.15;;;;;16.40;101269.00;;;;5050051;28;20208;-77
2023/01/07 02:53:48;;;;;;;5.22;2.80;;;;;16.40;101268.00;;;;5050613;28;20670;-77
2023/01/07 02:56:28;;;;;;;3.80;3.35;;;;;16.30;101259.00;;;;5050121;28;20662;-77
2023/01/07 02:59:27;;;;;;;4.72;2.45;;;;;16.30;101256.00;;;;5050721;28;20192;-77
2023/01/07 03:02:18;;;;;;;3.63;2.85;;;;;16.20;101248.00;;;;5053987;28;20206;-77
2023/01/07 03:05:24;;;;;;;4.80;3.15;;;;;16.20;101245.00;;;;5059167;28;20666;-77
2023/01/07 03:08:12;;;;;;;2.67;2.45;;;;;16.20;101246.00;;;;5045173;28;20195;-77
2023/01/07 03:10:45;;;;;;;4.25;2.55;;;;;16.30;101247.00;;;;5050265;28;20224;-77
2023/01/07 03:13:17;;;;;;;4.28;2.63;;;;;16.30;101238.00;;;;5049732;28;20211;-76
2023/01/07 03:15:48;;;;;;;4.15;2.67;;;;;16.20;101230.00;;;;5055486;28;20654;-77
2023/01/07 03:18:20;;;;;;;4.60;3.28;;;;;16.20;101225.00;;;;5049483;28;20239;-77
2023/01/07 03:20:51;;;;;;;4.07;2.92;;;;;16.20;101228.00;;;;5052236;28;20207;-76
2023/01/07 03:23:24;;;;;;;4.45;3.05;;;;;16.20;101230.00;;;;5068819;28;20195;-77
2023/01/07 03:25:53;;;;;;;4.40;2.95;;;;;16.20;101222.00;;;;5057802;28;20685;-77
2023/01/07 03:28:26;;;;;;;3.72;2.60;;;;;16.10;101221.00;;;;5051544;28;20210;-77
2023/01/07 03:30:56;;;;;;;3.40;2.50;;;;;16.10;101211.00;;;;5049043;28;20234;-77
2023/01/07 03:33:30;;;;;;;4.85;2.83;;;;;16.00;101207.00;;;;5047792;28;20666;-77
2023/01/07 03:36:00;;;;;;;4.13;2.70;;;;;16.00;101203.00;;;;5048508;28;20202;-77
2023/01/07 03:38:29;;;;;;;3.88;2.63;;;;;16.00;101203.00;;;;5048838;28;20203;-76
2023/01/07 03:40:57;;;;;;;2.58;2.38;;;;;16.00;101203.00;;;;5048921;28;20226;-77
2023/01/07 03:43:23;;;;;;;3.95;2.90;;;;;16.00;101195.00;;;;5047998;28;20206;-77
2023/01/07 03:45:52;;;;;;;3.67;2.55;;;;;15.90;101198.00;;;;5048969;28;20750;-77
2023/01/07 03:48:19;;;;;;;3.42;2.47;;;;;15.90;101193.00;;;;5048895;28;20218;-77
2023/01/07 03:50:46;;;;;;;3.58;3.03;;;;;15.90;101192.00;;;;5048538;28;20705;-77
2023/01/07 03:53:14;;;;;;;3.28;2.60;;;;;15.90;101193.00;;;;5049073;28;20203;-76
2023/01/07 03:55:42;;;;;;;3.50;2.47;;;;;15.80;101194.00;;;;5048438;28;20207;-76
2023/01/07 03:58:09;;;;;;;5.05;2.28;;;;;15.80;101192.00;;;;5048804;28;20211;-77
2023/01/07 04:00:37;;;;;;;3.58;2.42;;;;;15.80;101181.00;;;;5048700;28;20199;-77
2023/01/07 04:03:04;;;;;;;4.18;2.50;;;;;15.70;101187.00;;;;5049143;28;20271;-77
2023/01/07 04:05:31;;;;;;;3.33;2.70;;;;;15.70;101179.00;;;;5048437;28;20222;-77
2023/01/07 04:07:59;;;;;;;4.35;2.63;;;;;15.70;101183.00;;;;5049102;28;20196;-77
2023/01/07 04:10:26;;;;;;;3.47;2.78;;;;;15.70;101180.00;;;;5048273;28;20254;-77
2023/01/07 04:12:55;;;;;;;4.20;2.42;;;;;15.60;101173.00;;;;5049536;28;20700;-77
2023/01/07 04:15:22;;;;;;;4.03;2.70;;;;;15.60;101173.00;;;;5048208;28;20680;-77
2023/01/07 04:17:49;;;;;;;3.72;2.60;;;;;15.60;101169.00;;;;5048461;28;20199;-77
2023/01/07 04:20:16;;;;;;;3.38;2.33;;;;;15.60;101168.00;;;;5048755;28;20585;-77
2023/01/07 04:22:44;;;;;;;2.75;2.30;;;;;15.60;101170.00;;;;5048877;28;20678;-77
2023/01/07 04:25:11;;;;;;;3.25;2.70;;;;;15.60;101158.00;;;;5048288;28;20188;-77
2023/01/07 04:27:38;;;;;;;5.55;3.05;;;;;15.60;101158.00;;;;5047738;28;20202;-77
2023/01/07 04:30:08;;;;;;;4.18;2.80;;;;;15.50;101158.00;;;;5065732;28;20218;-77
2023/01/07 04:32:35;;;;;;;3.95;2.72;;;;;15.50;101151.00;;;;5072800;28;20222;-77
2023/01/07 04:35:03;;;;;;;4.88;2.72;;;;;15.50;101160.00;;;;5070162;28;20250;-77
2023/01/07 04:37:30;;;;;;;3.30;2.58;;;;;15.50;101151.00;;;;5072816;28;20202;-76
2023/01/07 04:39:57;;;;;;;3.30;2.55;;;;;15.50;101143.00;;;;5071809;28;20199;-77
2023/01/07 04:42:25;;;;;;;3.47;2.38;;;;;15.50;101143.00;;;;5072858;28;20199;-77
2023/01/07 04:44:52;;;;;;;4.13;2.65;;;;;15.50;101139.00;;;;5061190;28;20634;-77
2023/01/07 04:47:20;;;;;;;4.15;2.30;;;;;15.50;101131.00;;;;5052134;28;20204;-77
2023/01/07 04:49:48;;;;;;;4.00;2.20;;;;;15.50;101134.00;;;;5051659;28;20709;-77
2023/01/07 04:52:15;;;;;;;4.57;2.60;;;;;15.50;101133.00;;;;5052147;28;20199;-77
2023/01/07 04:54:42;;;;;;;2.88;2.10;;;;;15.50;101136.00;;;;5052363;28;20199;-77
2023/01/07 04:57:09;;;;;;;2.25;1.90;;;;;15.50;101132.00;;;;5052672;28;20203;-77
2023/01/07 04:59:36;;;;;;;2.75;2.50;;;;;15.50;101136.00;;;;5051157;28;20203;-77
2023/01/07 05:02:04;;;;;;;2.75;2.10;;;;;15.50;101135.00;;;;5052457;28;20191;-76
2023/01/07 05:04:32;;;;;;;4.07;2.72;;;;;15.50;101138.00;;;;5052590;28;20204;-77
2023/01/07 05:06:59;;;;;;;3.35;1.88;;;;;15.50;101126.00;;;;5052405;28;20206;-77
2023/01/07 05:09:27;;;;;;;3.15;2.30;;;;;15.60;101120.00;;;;5051830;28;20199;-76
2023/01/07 05:11:54;;;;;;;2.95;2.30;;;;;15.60;101117.00;;;;5052198;28;20203;-76
2023/01/07 05:14:21;;;;;;;3.80;2.05;;;;;15.60;101119.00;;;;5051807;28;20198;-77
2023/01/07 05:16:48;;;;;;;3.65;2.17;;;;;15.60;101117.00;;;;5071705;28;20210;-77
2023/01/07 05:19:20;;;;;;;3.05;2.03;;;;;15.60;101119.00;;;;5069753;28;20206;-77
2023/01/07 05:21:49;;;;;;;2.22;1.98;;;;;15.60;101120.00;;;;5071545;28;20333;-77
2023/01/07 05:24:16;;;;;;;3.78;2.53;;;;;15.60;101115.00;;;;5071220;28;20206;-78
2023/01/07 05:26:43;;;;;;;3.05;2.08;;;;;15.60;101108.00;;;;5071144;28;20203;-77
2023/01/07 05:29:11;;;;;;;3.90;2.05;;;;;15.60;101105.00;;;;5070351;28;20195;-76
2023/01/07 05:31:38;;;;;;;2.72;1.92;;;;;15.60;101106.00;;;;5071867;28;20237;-76
2023/01/07 05:34:05;;;;;;;2.85;1.90;;;;;15.70;101103.00;;;;5071256;28;20198;-77
2023/01/07 05:36:33;;;;;;;2.75;1.83;;;;;15.70;101100.00;;;;5069920;28;20214;-77
2023/01/07 05:39:02;;;;;;;4.20;2.00;;;;;15.70;101095.00;;;;5051637;28;20203;-77
2023/01/07 05:41:29;;;;;;;2.38;1.60;;;;;15.70;101100.00;;;;5050719;28;20192;-77
2023/01/07 05:43:56;;;;;;;3.15;2.15;;;;;15.70;101091.00;;;;5052284;28;20214;-77
2023/01/07 05:46:24;;;;;;;2.45;1.60;;;;;15.70;101090.00;;;;5068860;28;20198;-77
2023/01/07 05:48:53;;;;;;;2.42;2.13;;;;;15.70;101084.00;;;;5068039;28;20541;-77
2023/01/07 05:51:20;;;;;;;2.33;1.98;;;;;15.70;101086.00;;;;5071052;28;21035;-77
2023/01/07 05:53:47;;;;;;;2.42;1.50;;;;;15.80;101084.00;;;;5067317;28;20231;-77
2023/01/07 05:56:16;;;;;;;2.92;1.83;;;;;15.80;101081.00;;;;5051262;28;20204;-77
2023/01/07 05:58:43;;;;;;;2.30;1.70;;;;;15.80;101073.00;;;;5051672;28;20700;-77
2023/01/07 06:01:10;;;;;;;2.47;1.90;;;;;15.80;101088.00;;;;5050836;28;20250;-77
2023/01/07 06:03:38;;;;;;;3.30;2.00;;;;;15.80;101087.00;;;;5050877;28;20206;-77
2023/01/07 06:06:06;;;;;;;2.83;2.00;;;;;15.80;101072.00;;;;5051048;28;20293;-76
2023/01/07 06:08:34;;;;;;;2.95;2.03;;;;;15.80;101072.00;;;;5051056;28;20223;-77
2023/01/07 06:11:01;;;;;;;4.25;2.03;;;;;15.90;101071.00;;;;5059560;28;20224;-77
2023/01/07 06:13:29;;;;;;;1.83;1.52;;;;;15.80;101064.00;;;;5050706;28;20222;-77
2023/01/07 06:16:01;;;;;;;2.50;1.70;;;;;15.80;101056.00;;;;5050475;28;20211;-77
2023/01/07 06:18:28;;;;;;;2.38;1.50;;;;;15.90;101055.00;;;;5049884;28;20603;-77
2023/01/07 06:20:55;;;;;;;2.72;1.50;;;;;15.90;101051.00;;;;5050381;28;20203;-77
2023/01/07 06:23:22;;;;;;;2.35;1.58;;;;;15.90;101055.00;;;;5050164;28;20199;-78
2023/01/07 06:25:50;;;;;;;1.90;1.60;;;;;15.90;101049.00;;;;5056983;28;20206;-77
2023/01/07 06:28:17;;;;;;;1.52;1.42;;;;;15.90;101043.00;;;;5061011;28;20220;-77
2023/01/07 06:30:47;;;;;;;1.75;1.65;;;;;15.90;101039.00;;;;5049334;28;20223;-77
2023/01/07 06:33:15;;;;;;;1.48;1.27;;;;;15.90;101043.00;;;;5050087;28;20207;-77
2023/01/07 06:35:44;;;;;;;2.97;1.83;;;;;15.90;101033.00;;;;5049576;28;20270;-77
2023/01/07 06:38:11;;;;;;;1.80;1.33;;;;;15.90;101044.00;;;;5055708;28;20200;-77
2023/01/07 06:40:39;;;;;;;4.90;1.63;;;;;15.90;101035.00;;;;5048474;28;20223;-78
2023/01/07 06:43:06;;;;;;;2.05;1.65;;;;;15.90;101026.00;;;;5049047;28;20196;-77
2023/01/07 06:45:33;;;;;;;1.98;1.35;;;;;15.90;101023.00;;;;5049909;28;20295;-77
2023/01/07 06:48:02;;;;;;;2.38;1.40;;;;;15.90;101029.00;;;;5049224;28;20669;-77
2023/01/07 06:50:29;;;;;;;5.05;1.50;;;;;15.90;101032.00;;;;5048288;28;20223;-78
2023/01/07 06:52:57;;;;;;;1.95;1.30;;;;;15.90;101026.00;;;;5049648;28;20207;-77
2023/01/07 06:55:24;;;;;;;1.40;1.15;;;;;15.90;101016.00;;;;5048960;28;20680;-77
2023/01/07 06:57:51;;;;;;;2.45;1.25;;;;;15.90;101017.00;;;;5049467;28;20200;-77
2023/01/07 07:00:19;;;;;;;1.92;1.08;;;;;15.90;101014.00;;;;5048536;28;20203;-77
2023/01/07 07:02:46;;;;;;;1.40;1.30;;;;;15.80;101008.00;;;;5051672;28;20436;-77
2023/01/07 07:05:14;;;;;;;2.70;1.20;;;;;15.80;101017.00;;;;5049016;28;20705;-77
2023/01/07 07:07:42;;;;;;;2.33;1.25;;;;;15.80;101002.00;;;;5048483;28;20191;-77
2023/01/07 07:10:10;;;;;;;1.50;1.27;;;;;15.80;101000.00;;;;5049301;28;20203;-78
2023/01/07 07:12:38;;;;;;;1.90;1.30;;;;;15.70;100999.00;;;;5048394;28;20467;-77
2023/01/07 07:15:07;;;;;;;2.50;1.65;;;;;15.70;101002.00;;;;5049039;28;20212;-77
2023/01/07 07:17:34;;;;;;;2.42;1.25;;;;;15.70;101001.00;;;;5049206;28;20200;-77
2023/01/07 07:20:01;;;;;;;1.95;1.40;;;;;15.60;100999.00;;;;5061164;28;20213;-77
2023/01/07 07:22:30;;;;;;;3.10;1.38;;;;;15.60;100996.00;;;;5067403;28;20203;-77
2023/01/07 07:24:57;;;;;;;1.50;1.35;;;;;15.60;100997.00;;;;5068880;28;20568;-77
2023/01/07 07:27:24;;;;;;;2.70;1.38;;;;;15.60;100990.00;;;;5048972;28;20199;-77
2023/01/07 07:29:52;;;;;;;1.98;1.10;;;;;15.60;100989.00;;;;5048653;28;20195;-77
2023/01/07 07:32:19;;;;;;;1.40;1.10;;;;;15.60;100981.00;;;;5053780;28;20225;-77
2023/01/07 07:34:46;;;;;;;1.67;1.10;;;;;15.50;100984.00;;;;5069253;28;20207;-77
2023/01/07 07:37:13;;;;;;;1.40;0.95;;;;;15.50;100987.00;;;;5062004;28;20199;-77
2023/01/07 07:39:42;;;;;;;2.25;1.45;;;;;15.50;100981.00;;;;5068105;28;20213;-76
2023/01/07 07:42:09;;;;;;;3.00;1.45;;;;;15.50;100991.00;;;;5068617;28;20202;-77
2023/01/07 07:44:36;;;;;;;1.65;1.10;;;;;15.50;100982.00;;;;5068613;28;20227;-77
2023/01/07 07:47:04;;;;;;;3.25;1.17;;;;;15.50;100981.00;;;;5067634;28;20194;-76
2023/01/07 07:49:31;;;;;;;1.80;1.30;;;;;15.50;100982.00;;;;5065809;28;20194;-76
2023/01/07 07:51:58;;;;;;;2.90;1.00;;;;;15.50;100981.00;;;;5068664;28;20230;-77
2023/01/07 07:54:27;;;;;;;3.17;0.90;;;;;15.50;100983.00;;;;5051064;28;20299;-77
2023/01/07 07:56:57;;;;;;;2.15;1.08;;;;;15.50;100975.00;;;;5050924;28;20225;-77
2023/01/07 07:59:24;;;;;;;2.50;1.10;;;;;15.60;100972.00;;;;5067940;28;20296;-76
2023/01/07 08:01:51;;;;;;;2.20;0.80;;;;;15.60;100974.00;;;;5062983;28;20199;-76
2023/01/07 08:04:18;;;;;;;1.08;0.80;;;;;15.60;100973.00;;;;5047133;28;20226;-76
2023/01/07 08:06:46;;;;;;;2.17;0.85;;;;;15.60;100970.00;;;;5048629;28;20195;-77
2023/01/07 08:09:13;;;;;;;2.05;0.88;;;;;15.60;100966.00;;;;5049004;28;20194;-77
2023/01/07 08:11:40;;;;;;;1.30;0.98;;;;;15.70;100966.00;;;;5048260;28;20223;-76
2023/01/07 08:14:10;;;;;;;1.95;1.10;;;;;15.70;100965.00;;;;5048713;28;20692;-76
2023/01/07 08:16:37;;;;;;;2.38;1.20;;;;;15.70;100963.00;;;;5048663;28;20450;-77
2023/01/07 08:19:04;;;;;;;2.38;1.20;;;;;15.70;100960.00;;;;5048223;28;20207;-77
2023/01/07 08:21:32;;;;;;;1.00;0.80;;;;;15.80;100968.00;;;;5048395;28;20214;-76
2023/01/07 08:23:59;;;;;;;1.02;0.60;;;;;15.80;100959.00;;;;5048143;28;20205;-77
2023/01/07 08:26:26;;;;;;;1.20;0.90;;;;;15.80;100964.00;;;;5048595;28;20207;-77
2023/01/07 08:28:54;;;;;;;1.10;0.95;;;;;15.80;100956.00;;;;5047411;28;20214;-77
2023/01/07 08:31:22;;;;;;;1.75;1.10;;;;;15.80;100958.00;;;;5048065;28;20262;-78
2023/01/07 08:33:49;;;;;;;0.98;0.77;;;;;15.80;100958.00;;;;5048770;28;20191;-77
2023/01/07 08:36:17;;;;;;;2.15;0.88;;;;;15.90;100960.00;;;;5048145;28;20565;-77
2023/01/07 08:38:44;;;;;;;1.15;0.90;;;;;15.90;100951.00;;;;5047682;28;20210;-77
2023/01/07 08:41:11;;;;;;;0.98;0.77;;;;;15.90;100951.00;;;;5047404;28;20207;-77
2023/01/07 08:43:38;;;;;;;1.42;0.80;;;;;15.90;100952.00;;;;5047191;28;20696;-77
2023/01/07 08:46:05;;;;;;;1.10;0.90;;;;;15.90;100956.00;;;;5046092;28;20231;-78
2023/01/07 08:48:34;;;;;;;1.45;1.00;;;;;15.90;100956.00;;;;5049497;28;20576;-77
2023/01/07 08:51:02;;;;;;;2.17;0.70;;;;;15.90;100948.00;;;;5046994;28;20258;-77
2023/01/07 08:53:29;;;;;;;0.80;0.63;;;;;16.00;100947.00;;;;5046960;28;20715;-77
2023/01/07 08:55:56;;;;;;;1.27;0.98;;;;;16.00;100951.00;;;;5047761;28;20200;-77
2023/01/07 08:58:24;;;;;;;3.35;0.90;;;;;16.00;100955.00;;;;5047256;28;20646;-77
2023/01/07 09:00:51;;;;;;;2.30;0.70;;;;;16.00;100949.00;;;;5056986;28;20277;-77
2023/01/07 09:03:18;;;;;;;1.15;0.82;;;;;16.10;100950.00;;;;5065595;28;20210;-77
2023/01/07 09:05:48;;;;;;;1.40;0.80;;;;;16.10;100938.00;;;;5062307;28;20586;-77
2023/01/07 09:08:15;;;;;;;0.70;0.60;;;;;16.10;100945.00;;;;5047200;28;20212;-77
2023/01/07 09:10:42;;;;;;;1.20;0.90;;;;;16.10;100947.00;;;;5047296;28;20196;-77
2023/01/07 09:13:09;;;;;;;1.30;0.57;;;;;16.10;100942.00;;;;5046810;28;20232;-77
2023/01/07 09:15:37;;;;;;;1.10;0.80;;;;;16.20;100940.00;;;;5050180;28;20215;-77
2023/01/07 09:18:05;;;;;;;1.70;0.95;;;;;16.20;100938.00;;;;5056315;28;20669;-77
2023/01/07 09:20:32;;;;;;;1.23;0.65;;;;;16.20;100941.00;;;;5068990;28;20254;-77
2023/01/07 09:23:01;;;;;;;1.20;0.90;;;;;16.20;100937.00;;;;5071601;28;20202;-77
2023/01/07 09:25:28;;;;;;;1.10;0.60;;;;;16.20;100927.00;;;;5068748;28;20199;-77
2023/01/07 09:27:55;;;;;;;1.73;0.55;;;;;16.20;100924.00;;;;5051883;28;20203;-77
2023/01/07 09:30:23;;;;;;;0.77;0.50;;;;;16.30;100932.00;;;;5050894;28;20203;-78
2023/01/07 09:32:50;;;;;;;1.77;0.63;;;;;16.30;100935.00;;;;5052387;28;20238;-77
2023/01/07 09:35:18;;;;;;;0.90;0.80;;;;;16.30;100927.00;;;;5062264;28;20207;-76
2023/01/07 09:37:45;;;;;;;1.25;0.80;;;;;16.30;100922.00;;;;5063186;28;20203;-78
2023/01/07 09:40:23;;;;;;;0.80;0.50;;;;;16.30;100917.00;;;;5071315;28;20218;-77
2023/01/07 09:42:56;;;;;;;0.73;0.52;;;;;16.30;100910.00;;;;5050972;28;20203;-77
2023/01/07 09:45:26;;;;;;;1.13;0.70;;;;;16.40;100908.00;;;;5050197;28;20227;-77
2023/01/07 09:47:57;;;;;;;1.63;0.68;;;;;16.40;100905.00;;;;5051170;28;20561;-78
2023/01/07 09:50:33;;;;;;;0.90;0.43;;;;;16.40;100898.00;;;;5050193;28;20223;-77
2023/01/07 09:53:06;;;;;;;0.70;0.60;;;;;16.40;100894.00;;;;5050969;28;20772;-77
2023/01/07 09:55:37;;;;;;;1.33;0.60;;;;;16.40;100891.00;;;;5066598;28;20688;-77
2023/01/07 09:58:05;;;;;;;0.75;0.50;;;;;16.50;100888.00;;;;5064975;28;20643;-77
2023/01/07 10:00:35;;;;;;;0.80;0.70;;;;;16.50;100882.00;;;;5069610;28;20203;-77
2023/01/07 10:03:14;;;;;;;1.02;0.50;;;;;16.50;100888.00;;;;5070585;28;20210;-77
2023/01/07 10:05:51;;;;;;;0.85;0.80;;;;;16.50;100883.00;;;;5053510;28;20662;-77
2023/01/07 10:08:31;;;;;;;0.90;0.60;;;;;16.50;100873.00;;;;5067316;28;20571;-77
2023/01/07 10:11:07;;;;;;;1.55;0.77;;;;;16.60;100868.00;;;;5050172;28;20198;-77
2023/01/07 10:13:57;;;;;;;0.80;0.60;;;;;16.50;100859.00;;;;5049083;28;20212;-76
2023/01/07 10:16:31;;;;;;;1.13;0.43;;;;;16.60;100859.00;;;;5049218;28;20199;-77
2023/01/07 10:19:03;;;;;;;1.02;0.75;;;;;16.60;100847.00;;;;5049621;28;20203;-77
2023/01/07 10:21:40;;;;;;;0.95;0.63;;;;;16.60;100848.00;;;;5049762;28;20204;-77
2023/01/07 10:24:16;;;;;;;0.80;0.70;;;;;16.70;100849.00;;;;5049475;28;20482;-76
2023/01/07 10:26:48;;;;;;;0.70;0.70;;;;;16.70;100843.00;;;;5048917;28;20199;-77
2023/01/07 10:29:19;;;;;;;2.88;1.30;;;;;16.80;100831.00;;;;5048936;28;20200;-78
2023/01/07 10:31:48;;;;;;;1.00;0.88;;;;;16.80;100830.00;;;;5049229;28;20227;-78
2023/01/07 10:34:20;;;;;;;1.25;0.80;;;;;16.80;100825.00;;;;5049118;28;20600;-77
2023/01/07 10:37:00;;;;;;;0.80;0.52;;;;;16.70;100814.00;;;;5049458;28;20207;-77
2023/01/07 10:39:36;;;;;;;0.57;0.50;;;;;16.80;100805.00;;;;5051729;28;20200;-77
2023/01/07 10:42:11;;;;;;;0.90;0.70;;;;;16.80;100800.00;;;;5049249;28;20199;-77
2023/01/07 10:45:09;;;;;;;0.70;0.60;;;;;16.80;100793.00;;;;5050037;28;20238;-77
2023/01/07 10:47:55;;;;;;;0.75;0.65;;;;;16.90;100788.00;;;;5027913;28;20203;-77
2023/01/07 10:50:44;;;;;;;0.98;0.73;;;;;16.80;100786.00;;;;5048403;28;20208;-77
2023/01/07 10:53:22;;;;;;;3.20;0.70;;;;;16.90;100776.00;;;;5049111;28;20226;-77
2023/01/07 10:55:56;;;;;;;0.60;0.60;;;;;16.90;100765.00;;;;5049531;28;20203;-78
2023/01/07 10:58:36;;;;;;;1.52;0.80;;;;;16.90;100763.00;;;;5048639;28;20203;-77
2023/01/07 11:01:04;;;;;;;0.80;0.60;;;;;17.00;100757.00;;;;5049192;28;20208;-78
2023/01/07 11:03:32;;;;;;;0.70;0.47;;;;;17.00;100758.00;;;;5067895;28;20203;-77
2023/01/07 11:06:05;;;;;;;0.80;0.63;;;;;16.90;100751.00;;;;5052519;28;20656;-77
2023/01/07 11:08:37;;;;;;;0.88;0.68;;;;;16.90;100752.00;;;;5048245;28;20759;-78
2023/01/07 11:11:05;;;;;;;2.40;0.55;;;;;17.00;100746.00;;;;5068839;28;20215;-77
2023/01/07 11:13:36;;;;;;;1.05;0.55;;;;;16.90;100741.00;;;;5069260;28;20685;-77
2023/01/07 11:16:09;;;;;;;1.88;0.50;;;;;17.00;100727.00;;;;5069066;28;20290;-77
2023/01/07 11:18:46;;;;;;;0.73;0.60;;;;;17.00;100732.00;;;;5066286;28;20883;-77
2023/01/07 11:21:30;;;;;;;0.50;0.50;;;;;17.00;100723.00;;;;5069716;28;20190;-77
2023/01/07 11:23:57;;;;;;;0.82;0.60;;;;;17.00;100717.00;;;;5064226;28;20191;-78
2023/01/07 11:26:27;;;;;;;0.60;0.40;;;;;17.00;100714.00;;;;5060321;28;20202;-79
2023/01/07 11:28:57;;;;;;;0.80;0.50;;;;;17.00;100708.00;;;;5066194;28;20210;-77
2023/01/07 11:31:45;;;;;;;0.77;0.50;;;;;16.90;100699.00;;;;5069176;28;20218;-78
2023/01/07 11:34:19;;;;;;;1.00;0.90;;;;;17.00;100689.00;;;;5049011;28;20200;-78
2023/01/07 11:36:46;;;;;;;0.70;0.40;;;;;17.10;100685.00;;;;5049335;28;20234;-77
2023/01/07 11:39:21;;;;;;;0.57;0.45;;;;;17.00;100681.00;;;;5048248;28;20207;-77
2023/01/07 11:41:57;;;;;;;0.68;0.52;;;;;17.10;100679.00;;;;5048664;28;20218;-78
2023/01/07 11:44:26;;;;;;;0.65;0.40;;;;;17.20;100666.00;;;;5050803;28;20293;-77
2023/01/07 11:46:54;;;;;;;1.00;0.75;;;;;17.20;100661.00;;;;5067285;28;20207;-77
2023/01/07 11:49:27;;;;;;;0.60;0.45;;;;;17.20;100650.00;;;;5067850;28;20638;-78
2023/01/07 11:51:55;;;;;;;1.13;0.40;;;;;17.20;100648.00;;;;5056098;28;20204;-77
2023/01/07 11:54:25;;;;;;;0.55;0.43;;;;;17.20;100647.00;;;;5047597;28;20204;-80
2023/01/07 11:56:53;;;;;;;0.73;0.40;;;;;17.30;100641.00;;;;5048063;28;20200;-78
2023/01/07 11:59:29;;;;;;;2.15;0.60;;;;;17.20;100630.00;;;;5048236;28;20300;-78
2023/01/07 12:01:59;;;;;;;1.05;0.60;;;;;17.30;100631.00;;;;5051572;28;20233;-77
2023/01/07 12:04:28;;;;;;;0.55;0.40;;;;;17.30;100630.00;;;;5064192;28;20768;-79
2023/01/07 12:06:58;;;;;;;1.02;0.50;;;;;17.30;100619.00;;;;5055161;28;20199;-77
2023/01/07 12:09:37;;;;;;;1.58;0.52;;;;;17.30;100610.00;;;;5048660;28;20805;-77
2023/01/07 12:14:55;;;;;;;1.08;0.73;;;;;17.40;100604.00;;;;5048005;28;20211;-78
2023/01/07 12:17:24;;;;;;;2.45;0.73;;;;;17.40;100615.00;;;;5066195;28;20229;-78
2023/01/07 12:20:28;;;;;;;0.85;0.73;;;;;17.30;100601.00;;;;5068766;28;20198;-77
2023/01/07 12:23:07;;;;;;;0.98;0.50;;;;;17.30;100598.00;;;;5068868;28;20198;-77
2023/01/07 12:25:53;;;;;;;1.60;0.60;;;;;17.20;100597.00;;;;5058240;28;20568;-78
2023/01/07 12:28:33;;;;;;;1.05;0.50;;;;;17.30;100582.00;;;;5047468;28;20211;-78